Time,TemperatureF,DewpointF,PressureIn,WindDirection,WindDirectionDegrees,WindSpeedMPH,WindSpeedGustMPH,Humidity,HourlyPrecipIn,Conditions,Clouds,dailyrainin,SoftwareType,DateUTC
2013-12-07 00:12:00,12.0,-99.9,-100.00,NW,305,3.0,5.0,-999,0.00,,,0.00,,2013-12-07 06:12:00,
2013-12-07 00:23:00,12.0,-99.9,-100.00,NW,305,3.0,5.0,-999,0.00,,,0.00,,2013-12-07 06:23:00,
2013-12-07 00:43:00,12.0,-99.9,-100.00,WNW,301,3.0,5.0,-999,0.00,,,0.00,,2013-12-07 06:43:00,
2013-12-07 00:53:00,12.0,-99.9,-100.00,WNW,301,3.0,5.0,-999,0.00,,,0.00,,2013-12-07 06:53:00,
2013-12-07 01:12:00,12.0,-99.9,-100.00,NW,312,4.0,6.0,-999,0.00,,,0.00,,2013-12-07 07:12:00,
2013-12-07 01:22:00,12.0,-99.9,-100.00,NW,312,4.0,6.0,-999,0.00,,,0.00,,2013-12-07 07:22:00,
2013-12-07 01:30:00,11.0,-99.9,-100.00,NW,315,6.0,9.0,-999,0.00,,,0.00,,2013-12-07 07:30:00,
2013-12-07 01:42:00,12.0,-99.9,-100.00,NW,315,5.0,7.0,-999,0.00,,,0.00,,2013-12-07 07:42:00,
2013-12-07 01:53:00,12.0,-99.9,-100.00,NW,315,5.0,7.0,-999,0.00,,,0.00,,2013-12-07 07:53:00,
2013-12-07 02:12:00,11.0,-99.9,-100.00,NW,315,6.0,9.0,-999,0.00,,,0.00,,2013-12-07 08:12:00,
2013-12-07 02:22:00,11.0,-99.9,-100.00,NW,315,6.0,9.0,-999,0.00,,,0.00,,2013-12-07 08:22:00,
2013-12-07 03:12:00,10.0,-99.9,-100.00,NW,307,4.0,6.0,-999,0.00,,,0.00,,2013-12-07 09:12:00,
2013-12-07 03:22:00,10.0,-99.9,-100.00,NW,307,4.0,6.0,-999,0.00,,,0.00,,2013-12-07 09:22:00,
2013-12-07 03:44:00,10.0,-99.9,-100.00,NW,309,6.0,8.0,-999,0.00,,,0.00,,2013-12-07 09:44:00,
2013-12-07 03:54:00,10.0,-99.9,-100.00,NW,309,6.0,8.0,-999,0.00,,,0.00,,2013-12-07 09:54:00,
2013-12-07 04:13:00,9.0,-99.9,-100.00,NW,314,6.0,8.0,-999,0.00,,,0.00,,2013-12-07 10:13:00,
2013-12-07 04:23:00,9.0,-99.9,-100.00,NW,314,6.0,8.0,-999,0.00,,,0.00,,2013-12-07 10:23:00,
2013-12-07 04:43:00,9.0,-99.9,-100.00,NW,313,7.0,9.0,-999,0.00,,,0.00,,2013-12-07 10:43:00,
2013-12-07 04:53:00,9.0,-99.9,-100.00,NW,313,7.0,9.0,-999,0.00,,,0.00,,2013-12-07 10:53:00,
2013-12-07 05:12:00,8.0,-99.9,-100.00,NW,315,5.0,8.0,-999,0.00,,,0.00,,2013-12-07 11:12:00,
2013-12-07 05:22:00,8.0,-99.9,-100.00,NW,315,5.0,8.0,-999,0.00,,,0.00,,2013-12-07 11:22:00,
2013-12-07 05:42:00,8.0,-99.9,-100.00,NW,307,5.0,8.0,-999,0.00,,,0.00,,2013-12-07 11:42:00,
2013-12-07 05:52:00,8.0,-99.9,-100.00,NW,307,5.0,8.0,-999,0.00,,,0.00,,2013-12-07 11:52:00,
2013-12-07 06:12:00,7.0,-99.9,-100.00,NW,318,4.0,6.0,-999,0.00,,,0.00,,2013-12-07 12:12:00,
2013-12-07 06:22:00,7.0,-99.9,-100.00,NW,318,4.0,6.0,-999,0.00,,,0.00,,2013-12-07 12:22:00,
2013-12-07 06:43:00,7.0,-99.9,-100.00,NW,310,4.0,5.0,-999,0.00,,,0.00,,2013-12-07 12:43:00,
2013-12-07 06:52:00,7.0,-99.9,-100.00,NW,310,4.0,5.0,-999,0.00,,,0.00,,2013-12-07 12:52:00,
2013-12-07 07:12:00,6.0,-99.9,-100.00,NW,309,5.0,6.0,-999,0.00,,,0.00,,2013-12-07 13:12:00,
2013-12-07 07:22:00,6.0,-99.9,-100.00,NW,309,5.0,6.0,-999,0.00,,,0.00,,2013-12-07 13:22:00,
2013-12-07 07:42:00,6.0,-99.9,-100.00,NW,318,7.0,9.0,-999,0.00,,,0.00,,2013-12-07 13:42:00,
2013-12-07 07:52:00,6.0,-99.9,-100.00,NW,318,7.0,9.0,-999,0.00,,,0.00,,2013-12-07 13:52:00,
2013-12-07 08:12:00,6.0,-99.9,-100.00,NW,319,5.0,7.0,-999,0.00,,,0.00,,2013-12-07 14:12:00,
2013-12-07 08:22:00,6.0,-99.9,-100.00,NW,319,5.0,7.0,-999,0.00,,,0.00,,2013-12-07 14:22:00,
2013-12-07 08:42:00,9.0,-99.9,-100.00,NW,323,6.0,9.0,-999,0.00,,,0.00,,2013-12-07 14:42:00,
2013-12-07 08:52:00,9.0,-99.9,-100.00,NW,323,6.0,9.0,-999,0.00,,,0.00,,2013-12-07 14:52:00,
2013-12-07 09:12:00,12.0,-99.9,-100.00,NW,318,5.0,7.0,-999,0.00,,,0.00,,2013-12-07 15:12:00,
2013-12-07 09:22:00,12.0,-99.9,-100.00,NW,318,5.0,7.0,-999,0.00,,,0.00,,2013-12-07 15:22:00,
2013-12-07 09:43:00,13.0,-99.9,-100.00,NW,323,6.0,8.0,-999,0.00,,,0.00,,2013-12-07 15:43:00,
2013-12-07 09:54:00,13.0,-99.9,-100.00,NW,323,6.0,8.0,-999,0.00,,,0.00,,2013-12-07 15:54:00,
2013-12-07 10:00:00,15.0,-99.9,-100.00,NW,321,5.0,10.0,-999,0.00,,,0.00,,2013-12-07 16:00:00,
2013-12-07 10:13:00,12.0,-99.9,-100.00,NNW,341,7.0,9.0,-999,0.00,,,0.00,,2013-12-07 16:13:00,
2013-12-07 10:24:00,12.0,-99.9,-100.00,NNW,341,7.0,9.0,-999,0.00,,,0.00,,2013-12-07 16:24:00,
2013-12-07 10:43:00,15.0,-99.9,-100.00,NW,321,5.0,10.0,-999,0.00,,,0.00,,2013-12-07 16:43:00,
2013-12-07 10:53:00,15.0,-99.9,-100.00,NW,321,5.0,10.0,-999,0.00,,,0.00,,2013-12-07 16:53:00,
2013-12-07 11:30:00,18.0,-99.9,-100.00,North,4,5.0,9.0,-999,-99.99,,,0.00,,2013-12-07 17:30:00,
2013-12-07 12:12:00,18.0,-99.9,-100.00,North,4,5.0,9.0,-999,-99.99,,,0.00,,2013-12-07 18:12:00,
2013-12-07 12:22:00,18.0,-99.9,-100.00,North,4,5.0,9.0,-999,-99.99,,,0.00,,2013-12-07 18:22:00,
2013-12-07 14:11:00,21.0,-99.9,-100.00,North,1,6.0,11.0,-999,-99.99,,,0.00,,2013-12-07 20:11:00,
2013-12-07 14:22:00,21.0,-99.9,-100.00,North,1,6.0,11.0,-999,-99.99,,,0.00,,2013-12-07 20:22:00,
2013-12-07 14:30:00,23.0,-99.9,-100.00,NNW,348,8.0,11.0,-999,0.00,,,0.00,,2013-12-07 20:30:00,
2013-12-07 14:42:00,22.0,-99.9,-100.00,NNW,346,7.0,10.0,-999,0.00,,,0.00,,2013-12-07 20:42:00,
2013-12-07 14:53:00,22.0,-99.9,-100.00,NNW,346,7.0,10.0,-999,0.00,,,0.00,,2013-12-07 20:53:00,
2013-12-07 15:12:00,23.0,-99.9,-100.00,NNW,348,8.0,11.0,-999,0.00,,,0.00,,2013-12-07 21:12:00,
2013-12-07 15:22:00,23.0,-99.9,-100.00,NNW,348,8.0,11.0,-999,0.00,,,0.00,,2013-12-07 21:22:00,
2013-12-07 16:43:00,22.0,-99.9,-100.00,North,4,5.0,10.0,-999,-99.99,,,0.00,,2013-12-07 22:43:00,
2013-12-07 16:53:00,22.0,-99.9,-100.00,North,4,5.0,10.0,-999,-99.99,,,0.00,,2013-12-07 22:53:00,
2013-12-07 17:12:00,20.0,-99.9,-100.00,NE,43,6.0,8.0,-999,-99.99,,,0.00,,2013-12-07 23:12:00,
2013-12-07 17:22:00,20.0,-99.9,-100.00,NE,43,6.0,8.0,-999,-99.99,,,0.00,,2013-12-07 23:22:00,
2013-12-07 17:43:00,20.0,-99.9,-100.00,NNE,29,5.0,8.0,-999,0.00,,,0.00,,2013-12-07 23:43:00,
2013-12-07 17:52:00,20.0,-99.9,-100.00,NNE,29,5.0,8.0,-999,0.00,,,0.00,,2013-12-07 23:52:00,
2013-12-07 18:12:00,19.0,-99.9,-100.00,NE,35,5.0,8.0,-999,0.00,,,0.00,,2013-12-08 00:12:00,
2013-12-07 18:22:00,19.0,-99.9,-100.00,NE,35,5.0,8.0,-999,0.00,,,0.00,,2013-12-08 00:22:00,
2013-12-07 18:42:00,18.0,-99.9,-100.00,NNE,27,6.0,9.0,-999,0.00,,,0.00,,2013-12-08 00:42:00,
2013-12-07 18:52:00,18.0,-99.9,-100.00,NNE,27,6.0,9.0,-999,0.00,,,0.00,,2013-12-08 00:52:00,
2013-12-07 19:12:00,18.0,-99.9,-100.00,NE,36,5.0,7.0,-999,0.00,,,0.00,,2013-12-08 01:12:00,
2013-12-07 19:22:00,18.0,-99.9,-100.00,NE,36,5.0,7.0,-999,0.00,,,0.00,,2013-12-08 01:22:00,
2013-12-07 19:42:00,17.0,-99.9,-100.00,NE,34,7.0,10.0,-999,0.00,,,0.00,,2013-12-08 01:42:00,
2013-12-07 19:52:00,17.0,-99.9,-100.00,NE,34,7.0,10.0,-999,0.00,,,0.00,,2013-12-08 01:52:00,
2013-12-07 20:12:00,16.0,-99.9,-100.00,NNE,31,7.0,9.0,-999,0.00,,,0.00,,2013-12-08 02:12:00,
2013-12-07 20:22:00,16.0,-99.9,-100.00,NNE,31,7.0,9.0,-999,0.00,,,0.00,,2013-12-08 02:22:00,
2013-12-07 20:43:00,17.0,-99.9,-100.00,NNE,26,5.0,7.0,-999,0.00,,,0.00,,2013-12-08 02:43:00,
2013-12-07 20:52:00,17.0,-99.9,-100.00,NNE,26,5.0,7.0,-999,0.00,,,0.00,,2013-12-08 02:52:00,
2013-12-07 21:11:00,17.0,-99.9,-100.00,NNE,32,5.0,7.0,-999,0.00,,,0.00,,2013-12-08 03:11:00,
2013-12-07 21:22:00,17.0,-99.9,-100.00,NNE,32,5.0,7.0,-999,0.00,,,0.00,,2013-12-08 03:22:00,
2013-12-07 21:44:00,17.0,-99.9,-100.00,NNE,32,4.0,7.0,-999,0.00,,,0.00,,2013-12-08 03:44:00,
2013-12-07 21:54:00,17.0,-99.9,-100.00,NNE,32,4.0,7.0,-999,0.00,,,0.00,,2013-12-08 03:54:00,
2013-12-07 22:03:00,-999.0,-99.9,-100.00,NNE,32,3.0,5.0,-999,0.00,,,-99.99,,2013-12-08 04:03:00,
2013-12-07 22:13:00,16.0,-99.9,-100.00,NNE,32,3.0,5.0,-999,0.00,,,-99.99,,2013-12-08 04:13:00,
2013-12-07 22:23:00,16.0,-99.9,-100.00,NNE,32,3.0,5.0,-999,0.00,,,-99.99,,2013-12-08 04:23:00,
2013-12-07 22:43:00,16.0,-99.9,-100.00,NNE,31,3.0,6.0,-999,0.00,,,0.00,,2013-12-08 04:43:00,
2013-12-07 22:53:00,16.0,-99.9,-100.00,NNE,31,3.0,6.0,-999,0.00,,,0.00,,2013-12-08 04:53:00,
2013-12-07 23:13:00,16.0,-99.9,-100.00,NNE,24,5.0,8.0,-999,0.00,,,0.00,,2013-12-08 05:13:00,
2013-12-07 23:23:00,16.0,-99.9,-100.00,NNE,24,5.0,8.0,-999,0.00,,,0.00,,2013-12-08 05:23:00,
2013-12-07 23:44:00,16.0,-99.9,-100.00,NE,45,5.0,7.0,-999,0.00,,,0.00,,2013-12-08 05:44:00,
2013-12-07 23:53:00,16.0,-99.9,-100.00,NE,45,5.0,7.0,-999,0.00,,,0.00,,2013-12-08 05:53:00,